Terminal Aerodrome Forecast
Issued by NWS

Home | Current Version | Previous Version | Text Only | Print | Product List | Glossary On
Versions: 1 2 3 4 5 6 7 8 9 10 11 12
000
FTUS46 KPDT 271100
TAFPSC
TAF
KPSC 271140Z 2712/2812 VRB05KT P6SM BKN060 OVC090
     FM271400 34010KT P6SM -SHRA OVC050
     FM280100 36014KT P6SM BKN080=

USA.gov is the U.S. government's official web portal to all federal, state and local government web resources and services.